createdAt,value
2023-02-15T00:00:36.872Z,67.74
2023-02-15T00:03:07.057Z,67.50
2023-02-15T00:05:37.217Z,67.54
2023-02-15T00:08:07.348Z,67.40
2023-02-15T00:10:37.443Z,67.62
2023-02-15T00:13:07.552Z,67.53
2023-02-15T00:15:37.745Z,67.64
2023-02-15T00:18:07.914Z,67.86
2023-02-15T00:20:39.322Z,67.78
2023-02-15T00:23:09.541Z,68.10
2023-02-15T00:25:40.098Z,67.91
2023-02-15T00:28:10.248Z,67.75
2023-02-15T00:30:40.347Z,67.63
2023-02-15T00:33:10.576Z,67.95
2023-02-15T00:35:40.700Z,67.71
2023-02-15T00:38:10.862Z,67.51
2023-02-15T00:40:41.042Z,67.80
2023-02-15T00:43:11.199Z,67.78
2023-02-15T00:45:41.353Z,67.49
2023-02-15T00:48:11.588Z,67.67
2023-02-15T00:50:41.721Z,67.73
2023-02-15T00:53:11.850Z,68.02
2023-02-15T00:55:42.078Z,68.30
2023-02-15T00:58:13.554Z,68.12
2023-02-15T01:00:46.013Z,68.11
2023-02-15T01:03:18.095Z,68.29
2023-02-15T01:05:50.052Z,68.32
2023-02-15T01:08:20.276Z,68.18
2023-02-15T01:10:51.013Z,68.39
2023-02-15T01:13:21.586Z,68.31
2023-02-15T01:15:56.450Z,68.50
2023-02-15T01:18:27.811Z,68.65
2023-02-15T01:20:58.635Z,68.77
2023-02-15T01:23:28.905Z,68.67
2023-02-15T01:26:03.913Z,68.61
2023-02-15T01:28:34.222Z,68.51
2023-02-15T01:31:16.546Z,69.06
2023-02-15T01:33:48.454Z,68.76
2023-02-15T01:36:18.924Z,68.70
2023-02-15T01:38:50.511Z,68.64
2023-02-15T01:41:28.269Z,68.54
2023-02-15T01:44:00.825Z,68.35
2023-02-15T01:46:46.861Z,68.74
2023-02-15T01:49:23.150Z,68.61
2023-02-15T01:51:54.046Z,68.81
2023-02-15T01:54:37.025Z,68.52
2023-02-15T01:57:12.070Z,68.26
2023-02-15T01:59:46.308Z,68.45
2023-02-15T02:02:19.386Z,68.50
2023-02-15T02:04:56.657Z,68.49
2023-02-15T02:07:32.976Z,68.50
2023-02-15T02:10:04.487Z,68.68
2023-02-15T02:12:36.491Z,68.79
2023-02-15T02:15:07.740Z,68.65
2023-02-15T02:18:04.825Z,68.26
2023-02-15T02:20:37.729Z,68.34
2023-02-15T02:23:37.156Z,68.57
2023-02-15T02:26:07.182Z,68.36
2023-02-15T02:29:08.297Z,68.65
2023-02-15T02:31:45.838Z,68.68
2023-02-15T02:34:33.616Z,68.43
2023-02-15T02:37:09.607Z,68.28
2023-02-15T02:39:45.540Z,68.48
2023-02-15T02:42:23.107Z,68.03
2023-02-15T02:45:00.864Z,68.17
2023-02-15T02:47:45.112Z,68.52
2023-02-15T02:50:18.953Z,68.05
2023-02-15T02:52:51.811Z,68.14
2023-02-15T02:55:33.481Z,68.34
2023-02-15T02:58:11.020Z,68.17
2023-02-15T03:00:56.393Z,68.56
2023-02-15T03:03:31.628Z,68.50
2023-02-15T03:06:09.127Z,68.69
2023-02-15T03:08:46.488Z,68.62
2023-02-15T03:11:17.254Z,68.46
2023-02-15T03:13:49.897Z,68.23
2023-02-15T03:16:27.829Z,68.30
2023-02-15T03:19:12.889Z,68.73
2023-02-15T03:21:58.788Z,68.71
2023-02-15T03:24:47.261Z,68.41
2023-02-15T03:27:21.660Z,68.49
2023-02-15T03:29:58.027Z,68.45
2023-02-15T03:32:31.819Z,68.15
2023-02-15T03:35:02.664Z,68.61
2023-02-15T03:38:01.725Z,68.95
2023-02-15T03:40:59.775Z,68.82
2023-02-15T03:43:48.501Z,68.96
2023-02-15T03:46:36.642Z,68.80
2023-02-15T03:49:25.358Z,69.51
2023-02-15T03:51:58.814Z,69.23
2023-02-15T03:54:44.170Z,69.36
2023-02-15T03:57:47.209Z,69.61
2023-02-15T04:00:44.073Z,69.73
2023-02-15T04:03:30.704Z,69.65
2023-02-15T04:06:03.941Z,69.56
2023-02-15T04:08:52.485Z,69.37
2023-02-15T04:11:22.646Z,69.43
2023-02-15T04:13:57.579Z,69.52
2023-02-15T04:16:31.193Z,69.45
2023-02-15T04:19:20.058Z,69.42
2023-02-15T04:22:08.753Z,69.54
2023-02-15T04:24:57.288Z,69.58
2023-02-15T04:27:27.432Z,69.50
2023-02-15T04:29:57.590Z,69.29
2023-02-15T04:32:28.713Z,69.59
2023-02-15T04:34:58.819Z,69.85
2023-02-15T04:37:29.414Z,69.49
2023-02-15T04:40:02.438Z,69.63
2023-02-15T04:42:32.871Z,69.66
2023-02-15T04:45:03.610Z,69.69
2023-02-15T04:47:33.913Z,69.29
2023-02-15T04:50:04.456Z,69.29
2023-02-15T04:52:34.665Z,69.74
2023-02-15T04:55:05.497Z,69.60
2023-02-15T04:57:35.652Z,69.60
2023-02-15T05:00:06.505Z,69.58
2023-02-15T05:02:36.622Z,69.40
2023-02-15T05:05:07.104Z,69.65
2023-02-15T05:07:37.243Z,69.36
2023-02-15T05:10:07.810Z,69.81
2023-02-15T05:12:37.995Z,69.28
2023-02-15T05:15:08.602Z,69.23
2023-02-15T05:17:39.002Z,69.57
2023-02-15T05:20:09.605Z,69.33
2023-02-15T05:22:39.861Z,69.40
2023-02-15T05:25:29.178Z,69.29
2023-02-15T05:28:17.813Z,69.54
2023-02-15T05:30:50.427Z,69.37
2023-02-15T05:33:21.158Z,69.18
2023-02-15T05:35:52.265Z,69.75
2023-02-15T05:38:22.448Z,69.60
2023-02-15T05:40:53.550Z,69.55
2023-02-15T05:43:24.893Z,69.97
2023-02-15T05:45:56.295Z,69.42
2023-02-15T05:48:27.746Z,69.88
2023-02-15T05:51:03.834Z,69.69
2023-02-15T05:53:36.659Z,69.86
2023-02-15T05:56:10.556Z,69.95
2023-02-15T05:58:42.476Z,69.53
2023-02-15T06:01:18.482Z,69.81
2023-02-15T06:03:48.668Z,69.46
2023-02-15T06:06:18.980Z,69.55
2023-02-15T06:08:49.729Z,69.46
2023-02-15T06:11:19.858Z,69.39
2023-02-15T06:13:50.088Z,69.29
2023-02-15T06:16:20.267Z,69.64
2023-02-15T06:18:52.391Z,69.36
2023-02-15T06:21:23.898Z,69.28
2023-02-15T06:23:54.086Z,69.47
2023-02-15T06:26:24.445Z,69.51
2023-02-15T06:28:54.580Z,69.44
2023-02-15T06:31:24.828Z,69.69
2023-02-15T06:34:01.968Z,69.70
2023-02-15T06:36:32.726Z,70.34
2023-02-15T06:39:04.235Z,69.36
2023-02-15T06:41:34.431Z,69.25
2023-02-15T06:44:04.843Z,69.24
2023-02-15T06:46:35.196Z,69.37
2023-02-15T06:49:05.465Z,69.22
2023-02-15T06:51:35.771Z,69.58
2023-02-15T06:54:06.167Z,69.54
2023-02-15T06:56:36.362Z,69.00
2023-02-15T06:59:06.470Z,69.32
2023-02-15T07:01:38.148Z,69.09
2023-02-15T07:04:08.504Z,68.99
2023-02-15T07:06:39.025Z,69.12
2023-02-15T07:09:09.211Z,69.00
2023-02-15T07:11:58.023Z,69.06
2023-02-15T07:14:29.113Z,69.08
2023-02-15T07:16:59.307Z,68.97
2023-02-15T07:19:29.536Z,68.98
2023-02-15T07:22:00.676Z,69.09
2023-02-15T07:24:30.830Z,69.00
2023-02-15T07:27:01.210Z,69.23
2023-02-15T07:29:31.333Z,69.18
2023-02-15T07:32:01.631Z,68.86
2023-02-15T07:34:31.975Z,69.18
2023-02-15T07:37:02.218Z,69.16
2023-02-15T07:39:32.376Z,68.76
2023-02-15T07:42:02.521Z,69.01
2023-02-15T07:44:32.765Z,68.85
2023-02-15T07:47:02.992Z,68.81
2023-02-15T07:49:33.313Z,68.82
2023-02-15T07:52:04.761Z,68.78
2023-02-15T07:54:35.025Z,68.99
2023-02-15T07:57:06.083Z,69.00
2023-02-15T07:59:36.186Z,68.55
2023-02-15T08:02:11.298Z,69.16
2023-02-15T08:04:41.483Z,68.88
2023-02-15T08:07:11.677Z,68.92
2023-02-15T08:09:41.811Z,69.02
2023-02-15T08:12:12.071Z,68.86
2023-02-15T08:14:42.216Z,68.83
2023-02-15T08:17:12.336Z,69.07
2023-02-15T08:19:42.456Z,69.22
2023-02-15T08:22:15.164Z,68.76
2023-02-15T08:24:45.286Z,68.75
2023-02-15T08:27:15.413Z,69.30
2023-02-15T08:29:45.491Z,68.97
2023-02-15T08:32:15.742Z,68.83
2023-02-15T08:34:45.991Z,68.84
2023-02-15T08:37:16.205Z,69.20
2023-02-15T08:39:47.057Z,68.83
2023-02-15T08:42:17.240Z,68.80
2023-02-15T08:44:49.421Z,68.74
2023-02-15T08:47:20.493Z,68.58
2023-02-15T08:49:52.243Z,68.85
2023-02-15T08:52:22.492Z,68.69
2023-02-15T08:54:52.672Z,68.75
2023-02-15T08:57:22.752Z,68.95
2023-02-15T08:59:56.093Z,68.49
2023-02-15T09:02:26.530Z,68.68
2023-02-15T09:04:56.983Z,68.46
2023-02-15T09:07:27.318Z,68.42
2023-02-15T09:09:57.458Z,68.30
2023-02-15T09:12:27.532Z,68.25
2023-02-15T09:15:00.606Z,68.13
2023-02-15T09:17:30.752Z,68.10
2023-02-15T09:20:00.997Z,68.06
2023-02-15T09:22:32.428Z,67.96
2023-02-15T09:25:02.540Z,68.09
2023-02-15T09:27:32.777Z,68.20
2023-02-15T09:30:03.089Z,68.16
2023-02-15T09:32:33.287Z,68.06
2023-02-15T09:35:03.508Z,67.90
2023-02-15T09:37:33.725Z,67.72
2023-02-15T09:40:05.105Z,67.73
2023-02-15T09:42:54.014Z,67.45
2023-02-15T09:45:32.811Z,67.79
2023-02-15T09:48:12.539Z,67.48
2023-02-15T09:51:07.693Z,67.10
2023-02-15T09:53:37.818Z,67.39
2023-02-15T09:56:21.124Z,67.33
2023-02-15T09:59:10.205Z,67.21
2023-02-15T10:02:14.547Z,67.29
2023-02-15T10:05:19.558Z,67.45
2023-02-15T10:08:17.481Z,67.45
2023-02-15T10:11:24.301Z,67.63
2023-02-15T10:14:23.426Z,67.38
2023-02-15T10:17:32.017Z,67.17
2023-02-15T10:20:20.897Z,67.40
2023-02-15T10:23:06.173Z,67.19
2023-02-15T10:26:00.319Z,67.37
2023-02-15T10:28:41.087Z,67.48
2023-02-15T10:31:24.314Z,67.49
2023-02-15T10:34:25.200Z,67.42
2023-02-15T10:36:55.772Z,67.34
2023-02-15T10:39:43.965Z,67.70
2023-02-15T10:42:50.706Z,67.69
2023-02-15T10:45:32.761Z,67.50
2023-02-15T10:48:03.049Z,67.31
2023-02-15T10:51:05.377Z,67.93
2023-02-15T10:53:54.002Z,68.15
2023-02-15T10:56:50.937Z,68.10
2023-02-15T10:59:23.978Z,67.71
2023-02-15T11:02:32.941Z,68.79
2023-02-15T11:05:28.602Z,68.53
2023-02-15T11:08:03.752Z,68.18
2023-02-15T11:10:39.545Z,68.30
2023-02-15T11:13:17.608Z,68.34
2023-02-15T11:15:57.174Z,68.99
2023-02-15T11:18:45.748Z,68.01
2023-02-15T11:21:40.241Z,68.37
2023-02-15T11:24:17.838Z,68.00
2023-02-15T11:27:14.189Z,68.37
2023-02-15T11:30:01.715Z,68.03
2023-02-15T11:32:39.148Z,68.28
2023-02-15T11:35:21.688Z,68.18
2023-02-15T11:37:55.674Z,68.16
2023-02-15T11:40:29.708Z,67.90
2023-02-15T11:43:32.008Z,68.15
2023-02-15T11:46:03.414Z,67.94
2023-02-15T11:48:34.006Z,67.60
2023-02-15T11:51:05.376Z,67.49
2023-02-15T11:53:38.962Z,67.17
2023-02-15T11:56:16.296Z,67.25
2023-02-15T11:58:55.448Z,67.08
2023-02-15T12:01:37.953Z,67.17
2023-02-15T12:04:23.770Z,67.08
2023-02-15T12:07:04.711Z,67.18
2023-02-15T12:09:42.716Z,66.75
2023-02-15T12:12:31.010Z,66.35
2023-02-15T12:15:04.838Z,66.78
2023-02-15T12:17:49.287Z,67.04
2023-02-15T12:20:19.441Z,66.90
2023-02-15T12:22:54.874Z,66.34
2023-02-15T12:25:32.821Z,66.02
2023-02-15T12:28:04.453Z,66.37
2023-02-15T12:30:38.599Z,65.99
2023-02-15T12:33:23.802Z,66.18
2023-02-15T12:36:19.934Z,66.13
2023-02-15T12:39:07.582Z,65.66
2023-02-15T12:41:39.449Z,65.77
2023-02-15T12:44:20.714Z,65.76
2023-02-15T12:47:01.343Z,66.08
2023-02-15T12:49:37.025Z,66.13
2023-02-15T12:52:26.464Z,65.64
2023-02-15T12:55:33.234Z,65.31
2023-02-15T12:58:16.399Z,65.31
2023-02-15T13:00:47.539Z,65.44
2023-02-15T13:03:21.655Z,65.43
2023-02-15T13:05:58.724Z,65.37
2023-02-15T13:08:31.497Z,64.83
2023-02-15T13:11:07.726Z,65.33
2023-02-15T13:14:30.207Z,64.56
2023-02-15T13:17:04.075Z,65.36
2023-02-15T13:19:49.258Z,65.36
2023-02-15T13:22:34.444Z,64.71
2023-02-15T13:25:16.353Z,64.77
2023-02-15T13:27:49.885Z,64.96
2023-02-15T13:30:27.253Z,65.03
2023-02-15T13:33:02.170Z,65.65
2023-02-15T13:35:53.562Z,65.44
2023-02-15T13:38:44.756Z,65.77
2023-02-15T13:41:21.495Z,65.56
2023-02-15T13:44:09.578Z,65.84
2023-02-15T13:47:05.982Z,65.98
2023-02-15T13:49:48.479Z,65.67
2023-02-15T13:52:30.968Z,65.76
2023-02-15T13:55:20.483Z,65.64
2023-02-15T13:58:35.012Z,65.67
2023-02-15T14:01:40.754Z,65.13
2023-02-15T14:04:36.309Z,64.99
2023-02-15T14:07:06.478Z,65.14
2023-02-15T14:09:48.780Z,65.44
2023-02-15T14:13:01.348Z,65.29
2023-02-15T14:15:52.595Z,65.30
2023-02-15T14:18:39.676Z,65.42
2023-02-15T14:21:47.328Z,65.27
2023-02-15T14:24:35.646Z,65.57
2023-02-15T14:27:17.166Z,65.57
2023-02-15T14:29:53.212Z,65.67
2023-02-15T14:33:15.595Z,66.03
2023-02-15T14:35:45.977Z,65.96
2023-02-15T14:38:26.243Z,65.93
2023-02-15T14:41:06.359Z,66.09
2023-02-15T14:43:54.739Z,66.22
2023-02-15T14:46:46.814Z,65.98
2023-02-15T14:49:21.378Z,66.05
2023-02-15T14:51:51.599Z,66.14
2023-02-15T14:54:21.686Z,65.95
2023-02-15T14:57:04.137Z,66.10
2023-02-15T14:59:58.661Z,66.09
2023-02-15T15:02:49.795Z,66.13
2023-02-15T15:05:41.056Z,66.14
2023-02-15T15:08:26.678Z,66.21
2023-02-15T15:10:56.976Z,65.95
2023-02-15T15:13:33.523Z,66.27
2023-02-15T15:16:48.887Z,66.57
2023-02-15T15:19:52.275Z,66.54
2023-02-15T15:22:25.542Z,66.38
2023-02-15T15:24:56.687Z,66.55
2023-02-15T15:27:57.801Z,66.27
2023-02-15T15:30:48.104Z,66.32
2023-02-15T15:33:46.397Z,66.60
2023-02-15T15:36:45.179Z,66.25
2023-02-15T15:39:43.180Z,66.35
2023-02-15T15:42:48.846Z,66.61
2023-02-15T15:45:43.555Z,66.76
2023-02-15T15:48:35.823Z,66.76
2023-02-15T15:51:36.580Z,66.61
2023-02-15T15:54:11.245Z,66.43
2023-02-15T15:56:47.362Z,66.63
2023-02-15T15:59:33.477Z,67.19
2023-02-15T16:02:16.636Z,66.82
2023-02-15T16:04:49.881Z,66.69
2023-02-15T16:07:26.869Z,67.07
2023-02-15T16:09:59.356Z,68.09
2023-02-15T16:12:32.786Z,66.81
2023-02-15T16:15:14.794Z,67.04
2023-02-15T16:17:56.166Z,67.57
2023-02-15T16:20:37.553Z,67.34
2023-02-15T16:23:29.706Z,67.61
2023-02-15T16:26:22.924Z,67.49
2023-02-15T16:28:54.961Z,67.70
2023-02-15T16:31:25.225Z,67.56
2023-02-15T16:33:56.853Z,67.50
2023-02-15T16:36:29.598Z,67.90
2023-02-15T16:39:07.673Z,67.49
2023-02-15T16:41:39.108Z,67.51
2023-02-15T16:44:21.770Z,67.39
2023-02-15T16:46:55.087Z,67.48
2023-02-15T16:49:28.732Z,67.53
2023-02-15T16:52:02.825Z,67.81
2023-02-15T16:54:34.235Z,67.20
2023-02-15T16:57:04.589Z,67.82
2023-02-15T16:59:44.553Z,67.69
2023-02-15T17:02:43.008Z,67.66
2023-02-15T17:05:11.805Z,67.56
2023-02-15T17:07:51.365Z,67.40
2023-02-15T17:10:29.961Z,67.58
2023-02-15T17:13:13.397Z,67.75
2023-02-15T17:16:05.206Z,67.29
2023-02-15T17:18:45.663Z,68.01
2023-02-15T17:21:22.327Z,67.73
2023-02-15T17:23:57.818Z,67.83
2023-02-15T17:26:32.195Z,67.84
2023-02-15T17:29:24.099Z,68.04
2023-02-15T17:31:58.761Z,67.86
2023-02-15T17:35:09.212Z,68.25
2023-02-15T17:37:39.342Z,67.64
2023-02-15T17:40:17.829Z,68.16
2023-02-15T17:42:48.141Z,67.60
2023-02-15T17:45:18.662Z,67.93
2023-02-15T17:47:50.385Z,67.90
2023-02-15T17:50:26.494Z,67.89
2023-02-15T17:52:57.609Z,68.12
2023-02-15T17:55:40.352Z,67.92
2023-02-15T17:58:16.555Z,67.94
2023-02-15T18:01:15.610Z,67.94
2023-02-15T18:04:07.973Z,67.84
2023-02-15T18:06:59.102Z,68.00
2023-02-15T18:09:47.552Z,68.15
2023-02-15T18:12:25.041Z,67.93
2023-02-15T18:14:56.513Z,68.09
2023-02-15T18:17:28.890Z,68.45
2023-02-15T18:20:01.660Z,68.09
2023-02-15T18:22:32.790Z,68.21
2023-02-15T18:25:02.975Z,68.39
2023-02-15T18:27:33.266Z,68.30
2023-02-15T18:30:03.409Z,68.34
2023-02-15T18:32:36.871Z,68.07
2023-02-15T18:35:07.815Z,68.07
2023-02-15T18:37:37.957Z,68.33
2023-02-15T18:40:15.983Z,68.44
2023-02-15T18:42:49.814Z,68.46
2023-02-15T18:45:27.687Z,68.45
2023-02-15T18:47:58.041Z,68.56
2023-02-15T18:50:33.432Z,68.79
2023-02-15T18:53:06.238Z,68.67
2023-02-15T18:55:36.825Z,68.52
2023-02-15T18:58:06.969Z,68.54
2023-02-15T19:00:37.224Z,68.48
2023-02-15T19:03:07.368Z,68.18
2023-02-15T19:05:37.601Z,68.21
2023-02-15T19:08:17.070Z,68.88
2023-02-15T19:10:47.382Z,68.44
2023-02-15T19:13:17.948Z,68.57
2023-02-15T19:15:48.165Z,68.36
2023-02-15T19:18:19.393Z,68.43
2023-02-15T19:20:49.571Z,68.58
2023-02-15T19:23:22.869Z,68.59
2023-02-15T19:25:54.253Z,68.98
2023-02-15T19:28:36.756Z,68.70
2023-02-15T19:31:12.597Z,68.87
2023-02-15T19:33:42.880Z,68.36
2023-02-15T19:36:18.074Z,68.49
2023-02-15T19:38:54.139Z,68.51
2023-02-15T19:41:30.877Z,68.79
2023-02-15T19:44:01.150Z,69.00
2023-02-15T19:46:31.604Z,68.69
2023-02-15T19:49:01.729Z,68.51
2023-02-15T19:51:31.942Z,68.59
2023-02-15T19:54:02.542Z,68.92
2023-02-15T19:56:32.976Z,68.28
2023-02-15T19:59:03.128Z,68.68
2023-02-15T20:01:33.301Z,69.03
2023-02-15T20:04:03.723Z,68.94
2023-02-15T20:06:33.854Z,68.85
2023-02-15T20:09:05.113Z,68.77
2023-02-15T20:11:35.290Z,69.08
2023-02-15T20:14:11.065Z,69.06
2023-02-15T20:16:41.647Z,68.77
2023-02-15T20:19:13.569Z,69.07
2023-02-15T20:21:46.514Z,69.01
2023-02-15T20:24:19.231Z,69.05
2023-02-15T20:26:49.699Z,69.19
2023-02-15T20:29:21.290Z,69.00
2023-02-15T20:31:54.869Z,69.24
2023-02-15T20:34:25.405Z,69.49
2023-02-15T20:36:55.915Z,69.04
2023-02-15T20:39:26.067Z,69.19
2023-02-15T20:41:56.332Z,69.36
2023-02-15T20:44:32.046Z,69.23
2023-02-15T20:47:02.946Z,69.35
2023-02-15T20:49:33.364Z,68.84
2023-02-15T20:52:15.211Z,69.08
2023-02-15T20:54:45.399Z,69.33
2023-02-15T20:57:16.806Z,69.13
2023-02-15T20:59:47.106Z,69.20
2023-02-15T21:02:25.958Z,69.49
2023-02-15T21:04:56.168Z,69.45
2023-02-15T21:07:26.634Z,69.34
2023-02-15T21:09:56.917Z,69.13
2023-02-15T21:12:27.202Z,69.64
2023-02-15T21:14:57.548Z,69.64
2023-02-15T21:17:27.667Z,69.13
2023-02-15T21:19:57.837Z,69.36
2023-02-15T21:22:28.879Z,69.19
2023-02-15T21:24:59.215Z,69.56
2023-02-15T21:27:29.331Z,69.40
2023-02-15T21:30:01.212Z,69.67
2023-02-15T21:32:31.554Z,69.65
2023-02-15T21:35:01.845Z,69.39
2023-02-15T21:37:35.751Z,69.67
2023-02-15T21:40:27.043Z,70.25
2023-02-15T21:43:16.652Z,69.55
2023-02-15T21:46:05.202Z,69.83
2023-02-15T21:48:35.329Z,69.66
2023-02-15T21:51:24.500Z,69.57
2023-02-15T21:53:54.740Z,69.71
2023-02-15T21:56:25.364Z,69.35
2023-02-15T21:58:55.504Z,69.48
2023-02-15T22:01:27.837Z,69.68
2023-02-15T22:03:59.302Z,69.76
2023-02-15T22:06:29.469Z,69.75
2023-02-15T22:08:59.686Z,69.71
2023-02-15T22:11:32.184Z,69.71
2023-02-15T22:14:02.393Z,69.44
2023-02-15T22:16:32.675Z,69.63
2023-02-15T22:19:02.902Z,69.77
2023-02-15T22:21:33.037Z,69.47
2023-02-15T22:24:03.254Z,69.68
2023-02-15T22:26:33.377Z,69.54
2023-02-15T22:29:03.715Z,69.53
2023-02-15T22:31:33.922Z,69.34
2023-02-15T22:34:04.150Z,69.60
2023-02-15T22:36:34.396Z,69.67
2023-02-15T22:39:04.740Z,69.89
2023-02-15T22:41:35.050Z,69.86
2023-02-15T22:44:05.366Z,69.59
2023-02-15T22:46:36.003Z,69.99
2023-02-15T22:49:06.244Z,69.60
2023-02-15T22:51:36.391Z,69.67
2023-02-15T22:54:07.061Z,69.95
2023-02-15T22:56:42.133Z,69.94
2023-02-15T22:59:26.340Z,70.32
2023-02-15T23:01:57.154Z,69.76
2023-02-15T23:04:30.097Z,69.96
2023-02-15T23:07:01.204Z,69.61
2023-02-15T23:09:31.309Z,70.04
2023-02-15T23:12:01.433Z,69.96
2023-02-15T23:14:36.895Z,69.97
2023-02-15T23:17:07.007Z,69.98
2023-02-15T23:19:37.079Z,70.04
2023-02-15T23:22:14.743Z,70.03
2023-02-15T23:24:51.958Z,70.34
2023-02-15T23:27:40.886Z,70.00
2023-02-15T23:30:14.268Z,70.50
2023-02-15T23:32:44.520Z,70.46
2023-02-15T23:35:17.569Z,70.51
2023-02-15T23:37:47.758Z,70.34
2023-02-15T23:40:40.268Z,70.78
2023-02-15T23:43:22.517Z,70.92
2023-02-15T23:45:52.734Z,70.51
2023-02-15T23:48:31.572Z,70.18
2023-02-15T23:51:02.099Z,70.46
2023-02-15T23:53:33.270Z,70.68
2023-02-15T23:56:03.518Z,70.24
2023-02-15T23:58:37.753Z,70.63
